createdAt,value
2024-05-09T00:02:57.542Z,59.27
2024-05-09T00:06:00.268Z,59.09
2024-05-09T00:09:03.070Z,59.38
2024-05-09T00:12:05.718Z,59.50
2024-05-09T00:15:08.715Z,59.41
2024-05-09T00:18:11.449Z,59.41
2024-05-09T00:21:14.179Z,59.32
2024-05-09T00:24:16.710Z,59.25
2024-05-09T00:27:19.335Z,59.21
2024-05-09T00:30:31.046Z,59.24
2024-05-09T00:33:37.433Z,59.30
2024-05-09T00:36:40.059Z,59.27
2024-05-09T00:39:42.637Z,59.49
2024-05-09T00:42:47.205Z,59.32
2024-05-09T00:45:49.778Z,59.18
2024-05-09T00:48:52.542Z,59.49
2024-05-09T00:51:56.324Z,59.75
2024-05-09T00:54:59.846Z,59.40
2024-05-09T00:58:03.376Z,59.40
2024-05-09T01:01:06.623Z,59.21
2024-05-09T01:04:09.443Z,59.46
2024-05-09T01:07:12.904Z,59.37
2024-05-09T01:10:21.216Z,59.49
2024-05-09T01:13:30.232Z,59.54
2024-05-09T01:16:33.264Z,59.40
2024-05-09T01:19:35.979Z,59.68
2024-05-09T01:22:39.370Z,59.35
2024-05-09T01:25:41.944Z,59.02
2024-05-09T01:28:44.581Z,59.09
2024-05-09T01:31:47.781Z,59.53
2024-05-09T01:34:50.487Z,59.49
2024-05-09T01:37:53.179Z,59.29
2024-05-09T01:40:55.891Z,59.54
2024-05-09T01:43:58.469Z,59.23
2024-05-09T01:47:01.076Z,59.41
2024-05-09T01:50:06.615Z,59.35
2024-05-09T01:53:13.854Z,59.46
2024-05-09T01:56:17.074Z,59.36
2024-05-09T01:59:20.460Z,59.49
2024-05-09T02:02:23.135Z,59.37
2024-05-09T02:05:25.816Z,59.49
2024-05-09T02:08:28.482Z,59.65
2024-05-09T02:11:31.110Z,59.22
2024-05-09T02:14:33.831Z,59.37
2024-05-09T02:17:36.561Z,59.10
2024-05-09T02:20:40.810Z,59.45
2024-05-09T02:23:43.603Z,59.54
2024-05-09T02:26:46.363Z,59.36
2024-05-09T02:29:48.924Z,59.37
2024-05-09T02:32:51.593Z,59.62
2024-05-09T02:35:54.193Z,59.54
2024-05-09T02:38:56.747Z,59.62
2024-05-09T02:41:59.310Z,59.64
2024-05-09T02:45:02.140Z,59.46
2024-05-09T02:48:05.347Z,59.83
2024-05-09T02:51:08.246Z,59.39
2024-05-09T02:54:12.602Z,59.66
2024-05-09T02:57:15.162Z,59.59
2024-05-09T03:00:22.830Z,59.80
2024-05-09T03:03:31.758Z,59.78
2024-05-09T03:06:34.481Z,59.53
2024-05-09T03:09:36.992Z,59.73
2024-05-09T03:12:39.594Z,59.85
2024-05-09T03:15:42.833Z,59.80
2024-05-09T03:18:45.950Z,59.69
2024-05-09T03:21:48.521Z,59.66
2024-05-09T03:24:51.160Z,59.40
2024-05-09T03:27:53.837Z,60.16
2024-05-09T03:30:56.429Z,59.73
2024-05-09T03:33:59.135Z,59.71
2024-05-09T03:37:01.811Z,59.67
2024-05-09T03:40:09.190Z,59.95
2024-05-09T03:43:14.672Z,59.93
2024-05-09T03:46:17.450Z,59.83
2024-05-09T03:49:20.222Z,60.07
2024-05-09T03:52:22.803Z,59.45
2024-05-09T03:55:25.361Z,59.82
2024-05-09T03:58:27.894Z,60.02
2024-05-09T04:01:30.532Z,59.88
2024-05-09T04:04:33.320Z,60.01
2024-05-09T04:07:37.448Z,60.26
2024-05-09T04:10:40.709Z,61.30
2024-05-09T04:13:43.522Z,61.48
2024-05-09T04:16:46.124Z,61.91
2024-05-09T04:19:48.682Z,61.90
2024-05-09T04:22:52.102Z,61.80
2024-05-09T04:25:54.900Z,61.87
2024-05-09T04:28:57.468Z,61.44
2024-05-09T04:32:00.129Z,60.91
2024-05-09T04:35:03.067Z,61.08
2024-05-09T04:38:06.245Z,61.30
2024-05-09T04:41:09.078Z,61.38
2024-05-09T04:44:11.681Z,61.56
2024-05-09T04:47:14.381Z,61.18
2024-05-09T04:50:24.676Z,61.25
2024-05-09T04:53:32.130Z,61.10
2024-05-09T04:56:34.799Z,60.86
2024-05-09T04:59:37.451Z,60.62
2024-05-09T05:02:40.200Z,60.65
2024-05-09T05:05:44.580Z,60.33
2024-05-09T05:08:48.100Z,60.27
2024-05-09T05:11:50.765Z,60.01
2024-05-09T05:14:53.495Z,59.69
2024-05-09T05:17:58.243Z,59.26
2024-05-09T05:21:01.271Z,59.27
2024-05-09T05:24:04.106Z,59.27
2024-05-09T05:27:06.769Z,58.94
2024-05-09T05:30:14.772Z,59.04
2024-05-09T05:33:23.738Z,57.50
2024-05-09T05:36:26.495Z,53.16
2024-05-09T05:39:29.247Z,56.40
2024-05-09T05:42:31.793Z,56.50
2024-05-09T05:45:34.497Z,55.96
2024-05-09T05:48:37.172Z,55.36
2024-05-09T05:51:39.829Z,55.41
2024-05-09T05:54:42.359Z,54.43
2024-05-09T05:57:45.441Z,55.04
2024-05-09T06:00:48.269Z,53.96
2024-05-09T06:03:51.494Z,53.39
2024-05-09T06:06:54.500Z,53.49
2024-05-09T06:09:57.039Z,53.64
2024-05-09T06:12:59.581Z,53.84
2024-05-09T06:16:04.843Z,53.70
2024-05-09T06:19:07.411Z,53.69
2024-05-09T06:22:11.128Z,53.70
2024-05-09T06:25:14.051Z,53.46
2024-05-09T06:28:16.568Z,53.10
2024-05-09T06:31:21.166Z,53.68
2024-05-09T06:34:24.319Z,53.76
2024-05-09T06:37:26.967Z,53.72
2024-05-09T06:40:36.914Z,54.00
2024-05-09T06:43:42.354Z,53.86
2024-05-09T06:46:46.689Z,54.69
2024-05-09T06:49:52.538Z,54.53
2024-05-09T06:52:55.250Z,54.92
2024-05-09T06:55:58.358Z,54.65
2024-05-09T06:59:01.070Z,54.73
2024-05-09T07:02:04.833Z,55.16
2024-05-09T07:05:07.660Z,50.58
2024-05-09T07:08:10.509Z,53.51
2024-05-09T07:11:13.305Z,49.74
2024-05-09T07:14:15.907Z,51.48
2024-05-09T07:17:18.742Z,50.98
2024-05-09T07:20:32.168Z,50.74
2024-05-09T07:23:37.583Z,50.19
2024-05-09T07:26:40.349Z,50.50
2024-05-09T07:29:43.202Z,49.61
2024-05-09T07:32:46.214Z,48.96
2024-05-09T07:35:49.099Z,48.88
2024-05-09T07:38:51.880Z,48.92
2024-05-09T07:41:57.513Z,47.71
2024-05-09T07:45:14.914Z,47.28
2024-05-09T07:54:34.528Z,47.26
2024-05-09T07:57:37.482Z,47.13
2024-05-09T08:00:40.373Z,46.66
2024-05-09T08:03:43.198Z,46.43
2024-05-09T08:06:46.176Z,44.43
2024-05-09T08:09:49.056Z,44.01
2024-05-09T08:12:54.057Z,43.51
2024-05-09T08:15:56.764Z,44.30
2024-05-09T08:18:59.526Z,44.53
2024-05-09T08:22:07.136Z,44.85
2024-05-09T08:25:11.895Z,44.74
2024-05-09T08:28:16.470Z,44.59
2024-05-09T08:31:21.991Z,45.36
2024-05-09T08:34:25.709Z,45.26
2024-05-09T08:37:32.861Z,44.53
2024-05-09T08:40:39.607Z,44.38
2024-05-09T08:43:44.283Z,44.42
2024-05-09T08:46:48.773Z,44.66
2024-05-09T08:49:51.964Z,43.85
2024-05-09T08:52:54.643Z,41.76
2024-05-09T08:56:01.508Z,43.36
2024-05-09T08:59:06.840Z,44.14
2024-05-09T09:02:12.449Z,42.79
2024-05-09T09:05:21.472Z,43.49
2024-05-09T09:08:24.828Z,43.72
2024-05-09T09:11:27.641Z,43.90
2024-05-09T09:14:30.263Z,43.59
2024-05-09T09:17:33.095Z,44.21
2024-05-09T09:20:37.335Z,44.24
2024-05-09T09:23:40.083Z,44.17
2024-05-09T09:26:45.128Z,43.39
2024-05-09T09:29:49.620Z,41.60
2024-05-09T09:32:52.546Z,40.11
2024-05-09T09:35:55.221Z,41.32
2024-05-09T09:38:57.930Z,42.03
2024-05-09T09:42:01.249Z,41.74
2024-05-09T09:45:07.375Z,42.36
2024-05-09T09:48:10.925Z,43.03
2024-05-09T09:51:14.058Z,43.47
2024-05-09T09:54:18.042Z,44.23
2024-05-09T09:57:20.696Z,44.48
2024-05-09T10:00:29.947Z,44.01
2024-05-09T10:03:35.742Z,45.00
2024-05-09T10:06:44.089Z,43.99
2024-05-09T10:09:47.149Z,44.95
2024-05-09T10:13:08.863Z,45.50
2024-05-09T10:16:20.643Z,45.48
2024-05-09T10:19:27.330Z,45.33
2024-05-09T10:22:31.027Z,45.36
2024-05-09T10:25:36.527Z,45.77
2024-05-09T10:28:44.082Z,45.73
2024-05-09T10:31:47.519Z,46.13
2024-05-09T10:35:15.085Z,45.75
2024-05-09T10:38:18.081Z,46.05
2024-05-09T10:41:25.289Z,46.15
2024-05-09T10:44:28.613Z,46.20
2024-05-09T10:47:31.523Z,46.23
2024-05-09T10:50:34.761Z,45.93
2024-05-09T10:53:45.033Z,46.56
2024-05-09T10:56:56.154Z,46.70
2024-05-09T11:03:02.387Z,47.34
2024-05-09T11:06:05.798Z,46.98
2024-05-09T11:09:08.917Z,47.36
2024-05-09T11:12:14.306Z,47.44
2024-05-09T11:15:17.603Z,47.41
2024-05-09T11:18:25.889Z,47.50
2024-05-09T11:21:29.687Z,47.94
2024-05-09T11:24:33.201Z,47.86
2024-05-09T11:27:36.041Z,48.29
2024-05-09T11:30:38.724Z,48.51
2024-05-09T11:33:44.053Z,48.79
2024-05-09T11:36:47.374Z,48.91
2024-05-09T11:39:50.159Z,48.89
2024-05-09T11:42:53.383Z,48.97
2024-05-09T11:45:59.738Z,49.29
2024-05-09T11:49:02.746Z,48.84
2024-05-09T11:52:05.615Z,49.31
2024-05-09T11:55:08.920Z,49.42
2024-05-09T11:58:17.532Z,49.20
2024-05-09T12:01:22.169Z,49.27
2024-05-09T12:04:26.453Z,49.30
2024-05-09T12:07:29.273Z,49.39
2024-05-09T12:10:34.475Z,49.24
2024-05-09T12:13:38.531Z,48.92
2024-05-09T12:16:41.410Z,49.06
2024-05-09T12:19:44.156Z,49.24
2024-05-09T12:22:47.651Z,48.77
2024-05-09T12:25:50.229Z,48.69
2024-05-09T12:28:52.866Z,48.43
2024-05-09T12:31:55.550Z,48.78
2024-05-09T12:34:58.129Z,48.90
2024-05-09T12:38:00.839Z,48.90
2024-05-09T12:41:03.501Z,49.25
2024-05-09T12:44:06.194Z,48.82
2024-05-09T12:47:08.738Z,49.61
2024-05-09T12:50:21.828Z,49.31
2024-05-09T12:53:27.953Z,49.45
2024-05-09T12:56:30.767Z,49.41
2024-05-09T12:59:33.362Z,49.64
2024-05-09T13:02:36.285Z,49.66
2024-05-09T13:05:41.660Z,49.71
2024-05-09T13:08:44.517Z,50.12
2024-05-09T13:11:47.142Z,49.94
2024-05-09T13:14:49.768Z,49.99
2024-05-09T13:17:52.911Z,49.84
2024-05-09T13:20:56.198Z,49.69
2024-05-09T13:24:00.343Z,49.58
2024-05-09T13:27:03.190Z,49.74
2024-05-09T13:30:11.857Z,49.43
2024-05-09T13:33:17.380Z,49.07
2024-05-09T13:36:20.032Z,48.40
2024-05-09T13:39:22.593Z,48.44
2024-05-09T13:42:25.296Z,48.14
2024-05-09T13:45:27.868Z,48.02
2024-05-09T13:48:30.746Z,48.00
2024-05-09T13:51:33.388Z,48.26
2024-05-09T13:54:38.490Z,48.48
2024-05-09T13:57:41.153Z,48.11
2024-05-09T14:00:48.188Z,48.27
2024-05-09T14:03:52.015Z,48.24
2024-05-09T14:06:54.870Z,48.44
2024-05-09T14:09:57.499Z,48.32
2024-05-09T14:13:01.271Z,48.01
2024-05-09T14:16:04.509Z,48.07
2024-05-09T14:19:07.215Z,48.41
2024-05-09T14:22:10.104Z,48.66
2024-05-09T14:25:13.165Z,48.49
2024-05-09T14:28:15.896Z,48.60
2024-05-09T14:31:18.490Z,48.47
2024-05-09T14:34:21.365Z,48.59
2024-05-09T14:37:24.068Z,48.78
2024-05-09T14:40:37.033Z,48.63
2024-05-09T14:43:46.696Z,48.78
2024-05-09T14:46:49.426Z,48.93
2024-05-09T14:49:52.136Z,48.92
2024-05-09T14:52:54.777Z,48.86
2024-05-09T14:55:57.870Z,48.85
2024-05-09T14:59:00.533Z,48.85
2024-05-09T15:02:05.950Z,48.94
2024-05-09T15:05:11.142Z,49.22
2024-05-09T15:08:13.893Z,48.93
2024-05-09T15:11:16.500Z,49.57
2024-05-09T15:14:19.105Z,49.56
2024-05-09T15:17:21.705Z,49.47
2024-05-09T15:20:31.575Z,49.41
2024-05-09T15:23:38.140Z,49.58
2024-05-09T15:26:40.746Z,49.73
2024-05-09T15:29:43.360Z,49.97
2024-05-09T15:32:46.120Z,49.71
2024-05-09T15:35:51.105Z,49.70
2024-05-09T15:38:55.395Z,50.08
2024-05-09T15:41:57.982Z,49.43
2024-05-09T15:45:01.508Z,49.90
2024-05-09T15:48:05.588Z,49.80
2024-05-09T15:51:08.400Z,49.96
2024-05-09T15:54:11.308Z,49.85
2024-05-09T15:57:14.015Z,49.94
2024-05-09T16:00:24.918Z,50.27
2024-05-09T16:03:36.608Z,50.10
2024-05-09T16:06:39.779Z,50.23
2024-05-09T16:09:42.424Z,50.16
2024-05-09T16:12:45.122Z,50.28
2024-05-09T16:15:47.965Z,50.34
2024-05-09T16:18:50.824Z,50.23
2024-05-09T16:21:53.438Z,50.25
2024-05-09T16:24:56.213Z,50.17
2024-05-09T16:27:59.106Z,50.46
2024-05-09T16:31:02.546Z,50.39
2024-05-09T16:34:05.365Z,50.59
2024-05-09T16:37:10.403Z,50.49
2024-05-09T16:40:22.007Z,50.69
2024-05-09T16:43:32.772Z,50.54
2024-05-09T16:46:35.421Z,50.55
2024-05-09T16:49:38.018Z,50.77
2024-05-09T16:52:40.579Z,50.55
2024-05-09T16:55:43.193Z,50.72
2024-05-09T16:58:45.907Z,50.82
2024-05-09T17:01:48.564Z,50.92
2024-05-09T17:04:51.416Z,50.98
2024-05-09T17:07:54.072Z,51.00
2024-05-09T17:10:56.767Z,50.94
2024-05-09T17:13:59.888Z,51.00
2024-05-09T17:17:02.730Z,50.86
2024-05-09T17:20:18.767Z,50.81
2024-05-09T17:23:29.229Z,51.07
2024-05-09T17:26:32.585Z,51.06
2024-05-09T17:29:35.378Z,51.16
2024-05-09T17:32:38.037Z,51.29
2024-05-09T17:35:40.812Z,50.97
2024-05-09T17:38:46.679Z,51.04
2024-05-09T17:41:50.247Z,51.15
2024-05-09T17:44:53.497Z,51.35
2024-05-09T17:47:56.285Z,51.36
2024-05-09T17:50:58.904Z,51.30
2024-05-09T17:54:01.536Z,51.45
2024-05-09T17:57:04.394Z,51.42
2024-05-09T18:00:11.550Z,51.63
2024-05-09T18:03:17.454Z,51.70
2024-05-09T18:06:20.186Z,51.71
2024-05-09T18:09:22.788Z,51.88
2024-05-09T18:12:25.465Z,51.67
2024-05-09T18:15:28.059Z,51.84
2024-05-09T18:18:30.729Z,51.99
2024-05-09T18:21:33.596Z,52.06
2024-05-09T18:24:36.263Z,52.14
2024-05-09T18:27:38.966Z,52.11
2024-05-09T18:30:41.888Z,52.25
2024-05-09T18:33:44.612Z,52.06
2024-05-09T18:36:47.809Z,52.44
2024-05-09T18:39:50.560Z,52.29
2024-05-09T18:42:53.171Z,52.32
2024-05-09T18:45:55.796Z,52.71
2024-05-09T18:48:58.532Z,52.48
2024-05-09T18:52:01.355Z,52.30
2024-05-09T18:55:05.505Z,52.66
2024-05-09T18:58:08.580Z,52.69
2024-05-09T19:01:11.351Z,52.69
2024-05-09T19:04:18.323Z,52.90
2024-05-09T19:07:21.355Z,52.84
2024-05-09T19:10:28.832Z,52.88
2024-05-09T19:13:36.338Z,52.91
2024-05-09T19:16:39.267Z,53.12
2024-05-09T19:19:41.871Z,53.01
2024-05-09T19:22:44.634Z,53.13
2024-05-09T19:25:47.468Z,53.19
2024-05-09T19:28:50.469Z,53.40
2024-05-09T19:31:53.219Z,53.19
2024-05-09T19:34:55.855Z,53.59
2024-05-09T19:37:58.750Z,53.53
2024-05-09T19:41:01.342Z,53.54
2024-05-09T19:44:04.279Z,53.69
2024-05-09T19:47:07.404Z,53.31
2024-05-09T19:50:14.086Z,53.75
2024-05-09T19:53:22.220Z,53.95
2024-05-09T19:56:24.966Z,53.80
2024-05-09T19:59:27.725Z,54.01
2024-05-09T20:02:30.623Z,54.01
2024-05-09T20:05:34.714Z,53.98
2024-05-09T20:08:37.648Z,53.83
2024-05-09T20:11:40.306Z,54.11
2024-05-09T20:14:43.192Z,54.21
2024-05-09T20:17:46.206Z,54.28
2024-05-09T20:20:51.646Z,54.10
2024-05-09T20:23:56.410Z,54.26
2024-05-09T20:26:59.146Z,54.58
2024-05-09T20:30:01.879Z,54.35
2024-05-09T20:33:07.371Z,54.45
2024-05-09T20:36:11.531Z,54.60
2024-05-09T20:39:14.101Z,54.39
2024-05-09T20:42:16.773Z,54.53
2024-05-09T20:45:19.626Z,54.70
2024-05-09T20:48:22.398Z,54.57
2024-05-09T20:51:26.057Z,54.65
2024-05-09T20:54:29.371Z,54.90
2024-05-09T20:57:32.180Z,54.85
2024-05-09T21:00:40.032Z,54.99
2024-05-09T21:03:47.527Z,54.59
2024-05-09T21:06:50.210Z,55.04
2024-05-09T21:09:52.830Z,54.87
2024-05-09T21:12:55.475Z,55.02
2024-05-09T21:15:58.152Z,55.12
2024-05-09T21:19:00.911Z,54.96
2024-05-09T21:22:03.621Z,55.15
2024-05-09T21:25:06.295Z,55.10
2024-05-09T21:28:08.932Z,55.32
2024-05-09T21:31:11.531Z,55.21
2024-05-09T21:34:14.147Z,55.35
2024-05-09T21:37:16.848Z,55.15
2024-05-09T21:40:27.351Z,55.42
2024-05-09T21:43:38.015Z,55.20
2024-05-09T21:46:40.842Z,55.34
2024-05-09T21:49:43.427Z,55.32
2024-05-09T21:52:45.990Z,55.17
2024-05-09T21:55:48.512Z,55.61
2024-05-09T21:58:51.099Z,55.63
2024-05-09T22:01:53.704Z,55.75
2024-05-09T22:04:56.478Z,55.31
2024-05-09T22:07:59.081Z,55.54
2024-05-09T22:11:01.729Z,55.41
2024-05-09T22:14:04.306Z,55.50
2024-05-09T22:17:06.907Z,55.11
2024-05-09T22:20:17.996Z,55.85
2024-05-09T22:23:24.626Z,55.71
2024-05-09T22:26:27.175Z,55.59
2024-05-09T22:29:29.732Z,55.75
2024-05-09T22:32:32.320Z,55.78
2024-05-09T22:35:34.971Z,55.55
2024-05-09T22:38:37.523Z,55.92
2024-05-09T22:41:41.089Z,55.92
2024-05-09T22:44:43.610Z,55.75
2024-05-09T22:47:46.170Z,56.07
2024-05-09T22:50:48.788Z,55.89
2024-05-09T22:53:51.340Z,56.08
2024-05-09T22:56:53.839Z,55.95
2024-05-09T22:59:56.364Z,55.39
2024-05-09T23:03:02.301Z,56.21
2024-05-09T23:06:06.436Z,56.07
2024-05-09T23:09:09.992Z,56.14
2024-05-09T23:12:17.653Z,56.17
2024-05-09T23:15:20.220Z,56.08
2024-05-09T23:18:22.931Z,56.13
2024-05-09T23:21:25.597Z,56.11
2024-05-09T23:24:28.139Z,56.10
2024-05-09T23:27:30.664Z,56.12
2024-05-09T23:30:38.176Z,56.15
2024-05-09T23:33:47.114Z,56.29
2024-05-09T23:36:49.910Z,56.22
2024-05-09T23:39:53.451Z,56.41
2024-05-09T23:42:56.064Z,55.88
2024-05-09T23:45:58.659Z,56.22
2024-05-09T23:49:01.313Z,56.06
2024-05-09T23:52:04.342Z,56.46
2024-05-09T23:55:09.697Z,56.54
2024-05-09T23:58:12.368Z,56.54
